Wetterdaten: aktuell Donnerstag, 13.08.2020 12:40
Datum Zeit Temp. Dach 2 mtr. Höhe Boden Feuchte ISS Feuchte 2mtr Luftdruck Regen Wind Richtung Richtung Sonnenschein T Regen ET Solar Taupunkt Windchill Windböen Empfang
13.08.2020 12:40 28,4 °C 29,4 °C 30,0 °C 55 % 57 % 1012,6 hPa 0,0 l/m² 11,3 km/h (2 Bft) O 93 ° 60 min 0 min 0,432 mm 694 W/m² 20,0 °C 28,4 °C 24,1 km/h (4 Bft) 99,17 %
13.08.2020 11:40 28,4 °C 28,9 °C 30,6 °C 56 % 58 % 1012,9 hPa 0,0 l/m² 5,8 km/h (2 Bft) O-SO 111 ° 60 min 0 min 0,356 mm 609 W/m² 19,8 °C 28,4 °C 14,5 km/h (3 Bft) 100,00 %
13.08.2020 10:40 27,6 °C 27,2 °C 32,8 °C 59 % 63 % 1013,1 hPa 0,0 l/m² 6,2 km/h (2 Bft) W 277 ° 60 min 0 min 0,279 mm 502 W/m² 19,5 °C 27,6 °C 14,5 km/h (3 Bft) 96,67 %
13.08.2020 09:40 25,8 °C 25,0 °C 35,0 °C 67 % 71 % 1013,0 hPa 0,0 l/m² 7,2 km/h (2 Bft) O 84 ° 60 min 0 min 0,203 mm 401 W/m² 19,4 °C 25,8 °C 12,9 km/h (3 Bft) 98,33 %
13.08.2020 08:40 23,4 °C 22,2 °C 22,8 °C 74 % 80 % 1013,0 hPa 0,0 l/m² 11,3 km/h (2 Bft) O 84 ° 40 min 0 min 0,076 mm 242 W/m² 18,6 °C 23,4 °C 20,9 km/h (4 Bft) 99,16 %
13.08.2020 07:40 21,6 °C 20,6 °C 21,1 °C 82 % 86 % 1013,1 hPa 0,0 l/m² 11,0 km/h (2 Bft) NO 49 ° 15 min 0 min 0,051 mm 95 W/m² 18,2 °C 21,6 °C 19,3 km/h (3 Bft) 97,48 %
13.08.2020 06:40 21,0 °C 18,9 °C 18,9 °C 82 % 89 % 1013,2 hPa 0,0 l/m² 10,5 km/h (2 Bft) O 81 ° 0 min 0 min 0,000 mm 24 W/m² 17,0 °C 21,0 °C 14,5 km/h (3 Bft) 96,67 %
13.08.2020 05:40 21,1 °C 20,0 °C 18,9 °C 83 % 86 % 1013,2 hPa 0,0 l/m² 1,0 km/h (0 Bft) NO 40 ° 0 min 0 min 0,026 mm 0 W/m² 17,6 °C 21,1 °C 4,8 km/h (1 Bft) 99,17 %
13.08.2020 04:40 21,4 °C 20,6 °C 20,0 °C 82 % 84 % 1013,1 hPa 0,0 l/m² 2,6 km/h (1 Bft) O-NO 66 ° 0 min 0 min 0,050 mm 0 W/m² 17,8 °C 21,4 °C 4,8 km/h (1 Bft) 96,64 %
13.08.2020 03:40 22,0 °C 21,7 °C 20,6 °C 80 % 82 % 1013,3 hPa 0,0 l/m² 11,4 km/h (2 Bft) O 84 ° 0 min 0 min 0,077 mm 0 W/m² 18,5 °C 22,0 °C 14,5 km/h (3 Bft) 97,48 %
13.08.2020 02:40 22,7 °C 22,8 °C 22,2 °C 77 % 78 % 1013,7 hPa 0,0 l/m² 15,3 km/h (3 Bft) O 83 ° 0 min 0 min 0,076 mm 0 W/m² 18,8 °C 22,7 °C 19,3 km/h (3 Bft) 100,00 %
13.08.2020 01:40 24,0 °C 23,3 °C 23,3 °C 68 % 72 % 1014,0 hPa 0,0 l/m² 10,1 km/h (2 Bft) O-NO 73 ° 0 min 0 min 0,076 mm 0 W/m² 18,0 °C 24,0 °C 16,1 km/h (3 Bft) 100,00 %
13.08.2020 00:40 24,3 °C 23,9 °C 23,3 °C 67 % 71 % 1014,9 hPa 0,0 l/m² 8,9 km/h (2 Bft) O-SO 118 ° 0 min 0 min 0,000 mm 0 W/m² 18,3 °C 24,3 °C 16,1 km/h (3 Bft) 99,17 %
12.08.2020 23:40 24,8 °C 24,4 °C 23,9 °C 64 % 68 % 1015,0 hPa 0,0 l/m² 8,3 km/h (2 Bft) O 101 ° 0 min 0 min 0,101 mm 0 W/m² 18,1 °C 24,8 °C 12,9 km/h (3 Bft) 95,83 %
12.08.2020 22:40 26,0 °C 25,0 °C 23,9 °C 56 % 65 % 1014,7 hPa 0,0 l/m² 4,4 km/h (1 Bft) O-SO 106 ° 0 min 0 min 0,051 mm 0 W/m² 17,9 °C 26,0 °C 11,3 km/h (2 Bft) 99,16 %
12.08.2020 21:40 26,4 °C 25,6 °C 24,4 °C 55 % 62 % 1014,5 hPa 0,0 l/m² 14,1 km/h (3 Bft) O-SO 103 ° 0 min 0 min 0,076 mm 0 W/m² 17,8 °C 26,4 °C 17,7 km/h (3 Bft) 97,50 %
12.08.2020 20:40 27,3 °C 26,1 °C 25,0 °C 51 % 60 % 1014,4 hPa 0,0 l/m² 3,9 km/h (1 Bft) O-SO 123 ° 5 min 0 min 0,127 mm 13 W/m² 17,7 °C 27,3 °C 8,0 km/h (2 Bft) 97,48 %
12.08.2020 19:40 27,8 °C 26,7 °C 26,1 °C 50 % 55 % 1014,4 hPa 0,0 l/m² 6,7 km/h (2 Bft) SO 144 ° 60 min 0 min 0,280 mm 96 W/m² 16,9 °C 27,8 °C 11,3 km/h (2 Bft) 99,22 %
12.08.2020 18:40 27,6 °C 27,8 °C 27,2 °C 52 % 56 % 1014,8 hPa 0,0 l/m² 11,2 km/h (2 Bft) S 184 ° 60 min 0 min 0,482 mm 232 W/m² 18,2 °C 27,6 °C 20,9 km/h (4 Bft) 96,64 %
12.08.2020 17:40 28,0 °C 28,9 °C 28,9 °C 51 % 53 % 1015,0 hPa 0,0 l/m² 23,7 km/h (4 Bft) S-SW 206 ° 50 min 0 min 0,280 mm 417 W/m² 18,3 °C 28,0 °C 35,4 km/h (5 Bft) 100,00 %
12.08.2020 16:40 30,6 °C 29,4 °C 28,3 °C 44 % 53 % 1014,9 hPa 0,0 l/m² 6,1 km/h (2 Bft) S-SO 157 ° 0 min 0 min 0,305 mm 147 W/m² 18,8 °C 30,6 °C 12,9 km/h (3 Bft) 97,50 %
12.08.2020 15:40 30,8 °C 31,1 °C 30,0 °C 41 % 46 % 1015,3 hPa 0,0 l/m² 16,9 km/h (3 Bft) S-SW 196 ° 40 min 0 min 0,609 mm 183 W/m² 18,1 °C 30,8 °C 29,0 km/h (5 Bft) 95,80 %
12.08.2020 14:40 30,8 °C 32,2 °C 31,1 °C 42 % 44 % 1015,7 hPa 0,0 l/m² 15,7 km/h (3 Bft) S-SO 155 ° 60 min 0 min 0,635 mm 697 W/m² 18,4 °C 30,8 °C 33,8 km/h (5 Bft) 99,17 %
12.08.2020 13:40 31,3 °C 31,7 °C 31,7 °C 39 % 43 % 1015,8 hPa 0,0 l/m² 15,3 km/h (3 Bft) O-SO 115 ° 40 min 0 min 0,559 mm 722 W/m² 17,6 °C 31,3 °C 33,8 km/h (5 Bft) 96,67 %
12.08.2020 13:00 30,5 °C 31,1 °C 30,6 °C 42 % 45 % 1016,2 hPa 0,0 l/m² 16,5 km/h (3 Bft) SO 132 ° 0 min 0 min 0,000 mm 674 W/m² 17,7 °C 30,5 °C 37,0 km/h (5 Bft) 99,16 %
_ Min-Zeit 06:45 06:15 06:15 13:40 13:45 12:25 - 05:15 - - - - - - 06:15 06:45 21:10 00:55
Minimum _ 20,9 °C 18,9 °C 18,3 °C 39 % 41 % 1012,6 hPa - 0,2 km/h (0 Bft) - - - - - - 16,7 °C 20,9 °C 1,6 km/h (1 Bft) 93,46 %
_ Max-Zeit 13:35 13:45 10:15 05:00 06:35 13:00 13:00 16:55 - - 13:00 13:00 14:05 13:40 11:20 13:35 16:55 13:05
Maximum _ 31,4 °C 32,2 °C 37,2 °C 83 % 90 % 1016,2 hPa 0,0 l/m² 31,4 km/h
S-SW (5 Bft)
- - 5 min 0 min 0,635 mm 722 W/m² 20,3 °C 31,4 °C 51,5 km/h
S-SO (7 Bft)
100,00 %
Durchschnitt _ 26,2 °C 25,9 °C 26,2 °C 60 % 64 % 1014,3 hPa #0,0 l/m² 10,9 km/h (2 Bft) O - #4:55 h #0 min. #1,702 mm 175 W/m² 18,2 °C 26,2 °C 19,8 km/h (4 Bft) 98,33 %